Time;durP1;ratioP1;P1;durP2;ratioP2;P2;SDS_P1;SDS_P2;PMS_P1;PMS_P2;Temp;Humidity;BMP_temperature;BMP_pressure;BME280_temperature;BME280_humidity;BME280_pressure;Samples;Min_cycle;Max_cycle;Signal;HPM_P1;HPM_P2
2022/03/11 00:00:44;;;;;;;17.88;15.88;;;5.30;87.30;;;;;;5155186;27;20103;-74
2022/03/11 00:03:11;;;;;;;18.42;16.45;;;5.20;87.70;;;;;;5148968;27;20487;-74
2022/03/11 00:05:38;;;;;;;17.58;15.73;;;5.10;88.10;;;;;;5154626;27;20061;-74
2022/03/11 00:08:04;;;;;;;16.75;15.05;;;5.10;88.50;;;;;;5154407;27;20038;-74
2022/03/11 00:10:30;;;;;;;17.20;15.32;;;5.00;88.80;;;;;;5155424;27;20042;-73
2022/03/11 00:12:56;;;;;;;18.08;16.17;;;5.00;89.10;;;;;;5146879;27;20456;-74
2022/03/11 00:15:22;;;;;;;17.20;15.50;;;5.00;89.10;;;;;;5134330;27;20047;-73
2022/03/11 00:17:48;;;;;;;17.42;14.57;;;5.00;89.10;;;;;;5154912;27;20054;-74
2022/03/11 00:20:20;;;;;;;17.42;15.50;;;4.90;89.20;;;;;;5154885;27;20403;-73
2022/03/11 00:22:47;;;;;;;17.05;15.27;;;4.90;89.40;;;;;;5154666;27;20047;-74
2022/03/11 00:25:14;;;;;;;16.45;14.60;;;4.90;89.50;;;;;;5154495;27;20030;-74
2022/03/11 00:27:40;;;;;;;16.17;14.52;;;4.80;89.70;;;;;;5148170;27;20042;-73
2022/03/11 00:30:06;;;;;;;15.55;13.95;;;4.80;90.00;;;;;;5134007;27;20039;-74
2022/03/11 00:32:32;;;;;;;16.13;14.20;;;4.80;90.10;;;;;;5143910;27;20163;-74
2022/03/11 00:34:58;;;;;;;15.75;14.20;;;4.80;90.10;;;;;;5136335;27;20103;-74
2022/03/11 00:37:24;;;;;;;15.60;14.00;;;4.70;90.10;;;;;;5149268;27;20488;-74
2022/03/11 00:39:50;;;;;;;15.70;14.10;;;4.70;90.20;;;;;;5134350;27;20045;-73
2022/03/11 00:42:16;;;;;;;14.95;13.45;;;4.60;90.40;;;;;;5121511;27;20062;-74
2022/03/11 00:44:42;;;;;;;15.65;14.05;;;4.60;90.40;;;;;;5155170;27;20051;-73
2022/03/11 00:47:09;;;;;;;14.20;12.80;;;4.60;90.50;;;;;;5153672;27;20049;-74
2022/03/11 00:49:36;;;;;;;15.05;13.45;;;4.60;90.60;;;;;;5154620;27;20047;-73
2022/03/11 00:52:02;;;;;;;15.63;14.02;;;4.60;90.80;;;;;;5137638;27;20040;-74
2022/03/11 00:54:28;;;;;;;14.63;13.05;;;4.50;91.00;;;;;;5154641;27;20050;-73
2022/03/11 00:56:53;;;;;;;14.38;12.98;;;4.50;91.40;;;;;;5153966;27;20038;-73
2022/03/11 00:59:20;;;;;;;17.92;13.10;;;4.50;91.60;;;;;;5154126;27;20039;-74
2022/03/11 01:01:46;;;;;;;14.02;12.63;;;4.50;92.00;;;;;;5141314;27;20117;-73
2022/03/11 01:04:12;;;;;;;15.02;12.93;;;4.40;92.40;;;;;;5153683;27;20053;-73
2022/03/11 01:06:37;;;;;;;14.73;13.15;;;4.40;92.80;;;;;;5153789;27;20042;-73
2022/03/11 01:09:04;;;;;;;15.02;12.90;;;4.40;93.30;;;;;;5150361;27;20043;-74
2022/03/11 01:11:30;;;;;;;16.02;12.93;;;4.30;93.80;;;;;;5134967;27;20050;-74
2022/03/11 01:13:56;;;;;;;14.38;12.88;;;4.30;94.10;;;;;;5136842;27;20038;-74
2022/03/11 01:16:23;;;;;;;14.52;13.02;;;4.20;94.30;;;;;;5153597;27;20054;-74
2022/03/11 01:18:49;;;;;;;15.65;12.65;;;4.20;94.60;;;;;;5153378;27;20050;-74
2022/03/11 01:21:15;;;;;;;14.75;12.68;;;4.20;95.10;;;;;;5134335;27;20047;-74
2022/03/11 01:23:41;;;;;;;14.50;12.13;;;4.20;95.20;;;;;;5133730;27;20468;-74
2022/03/11 01:26:07;;;;;;;14.02;12.20;;;4.30;95.30;;;;;;5152133;27;20382;-74
2022/03/11 01:28:32;;;;;;;13.05;11.52;;;4.40;95.20;;;;;;5153933;27;20057;-73
2022/03/11 01:30:58;;;;;;;13.98;12.48;;;4.40;95.00;;;;;;5153579;27;20475;-73
2022/03/11 01:33:24;;;;;;;13.93;11.88;;;4.50;95.00;;;;;;5137999;27;20119;-73
2022/03/11 01:35:50;;;;;;;14.50;13.00;;;4.50;95.00;;;;;;5133635;27;20484;-73
2022/03/11 01:38:16;;;;;;;14.45;12.60;;;4.50;94.80;;;;;;5146019;27;20050;-73
2022/03/11 01:40:42;;;;;;;15.57;13.10;;;4.60;94.90;;;;;;5153581;27;20054;-74
2022/03/11 01:43:18;;;;;;;13.95;12.35;;;4.70;94.90;;;;;;5133179;27;20043;-74
2022/03/11 01:45:44;;;;;;;15.20;12.88;;;4.70;95.10;;;;;;5154294;27;20043;-73
2022/03/11 01:48:10;;;;;;;14.18;12.75;;;4.70;95.10;;;;;;5135299;27;20391;-74
2022/03/11 01:50:41;;;;;;;14.13;12.65;;;4.70;95.00;;;;;;5153947;27;20049;-73
2022/03/11 01:53:08;;;;;;;13.98;12.48;;;4.60;95.50;;;;;;5128757;28;20043;-74
2022/03/11 01:55:35;;;;;;;15.10;13.20;;;4.60;95.60;;;;;;5133280;28;20400;-73
2022/03/11 01:58:02;;;;;;;16.35;13.25;;;4.60;95.80;;;;;;5150753;27;20047;-73
2022/03/11 02:00:28;;;;;;;14.88;13.30;;;4.60;96.10;;;;;;5153308;27;20047;-73
2022/03/11 02:02:53;;;;;;;15.15;13.38;;;4.50;96.40;;;;;;5152062;27;20475;-74
2022/03/11 02:05:20;;;;;;;14.73;13.10;;;4.50;96.50;;;;;;5152079;27;20057;-73
2022/03/11 02:07:48;;;;;;;15.23;13.63;;;4.50;96.70;;;;;;5153370;27;20178;-73
2022/03/11 02:10:14;;;;;;;15.15;13.40;;;4.50;96.90;;;;;;5152892;27;20039;-74
2022/03/11 02:12:39;;;;;;;15.90;14.20;;;4.50;96.90;;;;;;5145456;27;20050;-73
2022/03/11 02:15:08;;;;;;;15.23;13.60;;;4.50;97.00;;;;;;5152586;27;20176;-75
2022/03/11 02:17:34;;;;;;;16.42;14.32;;;4.50;97.10;;;;;;5138675;27;20551;-73
2022/03/11 02:19:59;;;;;;;16.02;14.35;;;4.50;97.30;;;;;;5134586;27;20035;-73
2022/03/11 02:22:26;;;;;;;16.73;13.70;;;4.50;97.50;;;;;;5148973;27;20487;-74
2022/03/11 02:24:55;;;;;;;17.42;14.35;;;4.50;97.70;;;;;;5133391;27;20143;-73
2022/03/11 02:27:22;;;;;;;15.93;13.80;;;4.50;97.90;;;;;;5132545;27;20141;-73
2022/03/11 02:29:47;;;;;;;16.55;14.82;;;4.40;98.10;;;;;;5156359;27;20038;-73
2022/03/11 02:32:13;;;;;;;16.92;14.63;;;4.40;98.40;;;;;;5156848;27;20035;-73
2022/03/11 02:34:40;;;;;;;17.05;15.18;;;4.40;98.70;;;;;;5156984;27;20506;-73
2022/03/11 02:37:09;;;;;;;16.48;14.80;;;4.30;98.90;;;;;;5157629;27;20099;-73
2022/03/11 02:39:35;;;;;;;18.17;15.60;;;4.30;99.10;;;;;;5152987;27;20043;-73
2022/03/11 02:42:03;;;;;;;18.00;15.82;;;4.30;99.40;;;;;;5142512;27;20057;-73
2022/03/11 02:44:31;;;;;;;17.55;15.70;;;4.20;99.70;;;;;;5156002;27;20168;-73
2022/03/11 02:47:00;;;;;;;18.35;16.13;;;4.20;99.70;;;;;;5157238;27;20491;-73
2022/03/11 02:49:27;;;;;;;19.35;16.63;;;4.20;99.80;;;;;;5143066;27;20047;-73
2022/03/11 02:51:53;;;;;;;17.95;15.90;;;4.20;99.90;;;;;;5136524;27;20043;-74
2022/03/11 02:54:19;;;;;;;18.55;16.45;;;4.20;99.90;;;;;;5154058;27;20051;-73
2022/03/11 02:56:45;;;;;;;17.90;16.00;;;4.20;99.90;;;;;;5139082;27;20044;-73
2022/03/11 02:59:11;;;;;;;19.45;17.17;;;4.20;99.90;;;;;;5142080;27;20043;-75
2022/03/11 03:01:36;;;;;;;18.00;16.02;;;4.20;99.90;;;;;;5136295;27;20095;-73
2022/03/11 03:04:02;;;;;;;18.00;16.08;;;4.20;99.90;;;;;;5150066;27;20509;-73
2022/03/11 03:06:28;;;;;;;18.63;16.67;;;4.20;99.90;;;;;;5156741;27;20046;-73
2022/03/11 03:08:53;;;;;;;19.25;17.17;;;4.10;99.90;;;;;;5145335;27;20050;-73
2022/03/11 03:11:19;;;;;;;20.42;17.52;;;4.10;99.90;;;;;;5117256;27;20051;-74
2022/03/11 03:13:45;;;;;;;18.88;16.67;;;4.10;99.90;;;;;;5139779;27;20043;-73
2022/03/11 03:16:11;;;;;;;19.80;16.92;;;4.10;99.90;;;;;;5136090;27;20096;-74
2022/03/11 03:18:37;;;;;;;19.42;17.15;;;4.10;99.90;;;;;;5142926;27;20075;-73
2022/03/11 03:21:03;;;;;;;20.02;17.85;;;4.10;99.90;;;;;;5156660;27;20463;-73
2022/03/11 03:23:29;;;;;;;19.50;17.33;;;4.00;99.90;;;;;;5152349;27;20051;-73
2022/03/11 03:25:55;;;;;;;20.70;18.42;;;4.00;99.90;;;;;;5156736;27;20459;-73
2022/03/11 03:28:21;;;;;;;19.23;17.23;;;3.90;99.90;;;;;;5155231;27;20064;-74
2022/03/11 03:30:46;;;;;;;23.50;17.77;;;3.90;99.90;;;;;;5138139;27;20047;-73
2022/03/11 03:33:12;;;;;;;19.98;17.88;;;3.80;99.90;;;;;;5136874;27;20047;-73
2022/03/11 03:35:38;;;;;;;19.65;17.50;;;3.80;99.90;;;;;;5151980;27;20043;-73
2022/03/11 03:38:04;;;;;;;22.20;17.63;;;3.80;99.90;;;;;;5150952;27;20082;-73
2022/03/11 03:40:30;;;;;;;20.40;17.50;;;3.80;99.90;;;;;;5134412;27;20055;-72
2022/03/11 03:42:55;;;;;;;20.65;18.42;;;3.70;99.90;;;;;;5138594;27;20069;-73
2022/03/11 03:45:21;;;;;;;22.33;19.13;;;3.70;99.90;;;;;;5155319;27;20066;-73
2022/03/11 03:47:47;;;;;;;21.25;18.55;;;3.70;99.90;;;;;;5155323;27;20043;-73
2022/03/11 03:50:13;;;;;;;22.40;18.65;;;3.60;99.90;;;;;;5151072;27;20384;-73
2022/03/11 03:52:38;;;;;;;20.98;18.52;;;3.70;99.90;;;;;;5134843;27;20065;-73
2022/03/11 03:55:06;;;;;;;22.77;19.48;;;3.60;99.90;;;;;;5154873;27;20054;-73
2022/03/11 03:57:32;;;;;;;21.55;19.25;;;3.60;99.90;;;;;;5155447;27;20045;-73
2022/03/11 03:59:57;;;;;;;22.00;18.98;;;3.60;99.90;;;;;;5137559;27;20079;-73
2022/03/11 04:02:23;;;;;;;23.25;19.55;;;3.50;99.90;;;;;;5134709;27;20159;-74
2022/03/11 04:04:49;;;;;;;23.20;19.90;;;3.50;99.90;;;;;;5153014;27;20572;-73
2022/03/11 04:07:15;;;;;;;22.17;19.25;;;3.40;99.90;;;;;;5155540;27;20046;-74
2022/03/11 04:09:41;;;;;;;22.95;19.63;;;3.40;99.90;;;;;;5137922;27;20043;-73
2022/03/11 04:12:09;;;;;;;23.35;19.58;;;3.40;99.90;;;;;;5135155;27;20163;-73
2022/03/11 04:14:34;;;;;;;22.75;19.38;;;3.40;99.90;;;;;;5150381;27;20046;-74
2022/03/11 04:17:00;;;;;;;22.60;19.88;;;3.40;99.90;;;;;;5155618;27;20113;-73
2022/03/11 04:19:26;;;;;;;24.02;20.27;;;3.40;99.90;;;;;;5140263;27;20039;-73
2022/03/11 04:21:51;;;;;;;23.60;20.02;;;3.40;99.90;;;;;;5151687;27;20395;-73
2022/03/11 04:24:18;;;;;;;23.42;21.00;;;3.40;99.90;;;;;;5143679;27;20094;-73
2022/03/11 04:26:45;;;;;;;23.90;20.70;;;3.40;99.90;;;;;;5134236;27;20043;-73
2022/03/11 04:29:14;;;;;;;24.02;21.05;;;3.40;99.90;;;;;;5145306;27;20039;-73
2022/03/11 04:31:40;;;;;;;25.73;20.73;;;3.40;99.90;;;;;;5154787;27;20050;-73
2022/03/11 04:34:06;;;;;;;23.60;20.67;;;3.50;99.90;;;;;;5147165;27;20054;-73
2022/03/11 04:36:33;;;;;;;24.25;20.90;;;3.50;99.90;;;;;;5143325;27;20043;-73
2022/03/11 04:39:02;;;;;;;25.45;22.17;;;3.50;99.90;;;;;;5148527;27;20107;-73
2022/03/11 04:41:28;;;;;;;24.13;20.15;;;3.50;99.90;;;;;;5142216;27;20050;-74
2022/03/11 04:43:54;;;;;;;26.83;22.50;;;3.50;99.90;;;;;;5143845;27;20055;-73
2022/03/11 04:46:19;;;;;;;25.55;22.02;;;3.40;99.90;;;;;;5151081;27;20077;-73
2022/03/11 04:48:47;;;;;;;25.63;21.58;;;3.40;99.90;;;;;;5154501;27;20055;-73
2022/03/11 04:51:16;;;;;;;24.95;21.83;;;3.40;99.90;;;;;;5153468;27;20038;-73
2022/03/11 04:53:41;;;;;;;25.08;21.65;;;3.40;99.90;;;;;;5134330;27;20042;-73
2022/03/11 04:56:07;;;;;;;25.35;22.63;;;3.40;99.90;;;;;;5155008;27;20130;-73
2022/03/11 04:58:33;;;;;;;26.98;21.80;;;3.30;99.90;;;;;;5153171;27;20043;-73
2022/03/11 05:00:59;;;;;;;26.83;23.80;;;3.30;99.90;;;;;;5154736;27;20043;-72
2022/03/11 05:03:25;;;;;;;26.52;23.02;;;3.20;99.90;;;;;;5133641;27;20476;-75
2022/03/11 05:05:52;;;;;;;26.77;22.70;;;3.20;99.90;;;;;;5133877;27;20051;-73
2022/03/11 05:08:17;;;;;;;29.83;24.10;;;3.20;99.90;;;;;;5134132;27;20051;-71
2022/03/11 05:10:43;;;;;;;26.02;22.92;;;3.20;99.90;;;;;;5152983;27;20364;-73
2022/03/11 05:13:09;;;;;;;26.25;23.38;;;3.20;99.90;;;;;;5135742;27;20047;-74
2022/03/11 05:15:37;;;;;;;27.38;24.38;;;3.10;99.90;;;;;;5133237;27;20122;-74
2022/03/11 05:18:04;;;;;;;26.48;23.42;;;3.20;99.90;;;;;;5133616;27;20051;-74
2022/03/11 05:20:30;;;;;;;27.00;24.08;;;3.10;99.90;;;;;;5132930;27;20098;-74
2022/03/11 05:22:56;;;;;;;26.98;23.83;;;3.10;99.90;;;;;;5133940;27;20043;-74
2022/03/11 05:25:22;;;;;;;28.27;23.95;;;3.00;99.90;;;;;;5151742;27;20114;-73
2022/03/11 05:27:48;;;;;;;29.27;24.55;;;3.00;99.90;;;;;;5153765;27;20054;-73
2022/03/11 05:30:14;;;;;;;28.63;24.35;;;2.90;99.90;;;;;;5154248;27;20035;-73
2022/03/11 05:32:41;;;;;;;28.60;23.80;;;2.90;99.90;;;;;;5135529;27;20070;-74
2022/03/11 05:35:07;;;;;;;30.42;25.33;;;2.90;99.90;;;;;;5154272;27;20038;-73
2022/03/11 05:37:34;;;;;;;27.30;24.02;;;2.90;99.90;;;;;;5134432;27;20411;-73
2022/03/11 05:40:00;;;;;;;30.45;25.80;;;2.90;99.90;;;;;;5135894;27;20051;-74
2022/03/11 05:42:25;;;;;;;29.55;25.10;;;2.80;99.90;;;;;;5154299;27;20509;-74
2022/03/11 05:44:51;;;;;;;29.17;25.02;;;2.80;99.90;;;;;;5153635;27;20141;-73
2022/03/11 05:47:17;;;;;;;28.58;24.45;;;2.80;99.90;;;;;;5135409;27;20049;-74
2022/03/11 05:49:42;;;;;;;29.30;24.95;;;2.70;99.90;;;;;;5153579;27;20042;-74
2022/03/11 05:52:08;;;;;;;29.48;25.15;;;2.70;99.90;;;;;;5154159;27;20078;-74
2022/03/11 05:54:34;;;;;;;28.83;25.50;;;2.60;99.90;;;;;;5153628;27;20043;-74
2022/03/11 05:57:01;;;;;;;29.88;26.35;;;2.60;99.90;;;;;;5154114;27;20049;-73
2022/03/11 05:59:29;;;;;;;28.52;25.23;;;2.70;99.90;;;;;;5153765;27;20046;-73
2022/03/11 06:01:55;;;;;;;28.75;25.08;;;2.60;99.90;;;;;;5153287;27;20119;-73
2022/03/11 06:04:21;;;;;;;31.38;25.85;;;2.60;99.90;;;;;;5158274;27;20043;-74
2022/03/11 06:06:47;;;;;;;30.50;25.77;;;2.60;99.90;;;;;;5157684;27;20091;-74
2022/03/11 06:09:14;;;;;;;30.60;25.95;;;2.50;99.90;;;;;;5139750;27;20165;-73
2022/03/11 06:11:39;;;;;;;28.55;25.23;;;2.50;99.90;;;;;;5157658;27;20492;-74
2022/03/11 06:14:06;;;;;;;29.40;26.25;;;2.50;99.90;;;;;;5157391;27;20034;-74
2022/03/11 06:16:32;;;;;;;30.25;25.75;;;2.50;99.90;;;;;;5158064;27;20043;-73
2022/03/11 06:18:58;;;;;;;30.08;25.65;;;2.50;99.90;;;;;;5157853;27;20074;-74
2022/03/11 06:21:23;;;;;;;28.27;25.23;;;2.50;99.90;;;;;;5157871;27;20086;-74
2022/03/11 06:23:49;;;;;;;32.78;26.45;;;2.60;99.90;;;;;;5138842;27;20050;-74
2022/03/11 06:26:15;;;;;;;30.15;25.83;;;2.60;99.90;;;;;;5157344;27;20043;-73
2022/03/11 06:28:41;;;;;;;28.95;25.70;;;2.60;99.90;;;;;;5157190;27;20042;-73
2022/03/11 06:31:08;;;;;;;30.05;25.33;;;2.60;99.90;;;;;;5157825;27;20127;-73
2022/03/11 06:33:34;;;;;;;29.73;25.45;;;2.60;99.90;;;;;;5157783;27;20080;-74
2022/03/11 06:36:00;;;;;;;30.77;25.67;;;2.60;99.90;;;;;;5157366;27;20125;-73
2022/03/11 06:38:26;;;;;;;31.33;26.40;;;2.70;99.90;;;;;;5156956;27;20414;-74
2022/03/11 06:40:53;;;;;;;29.85;25.95;;;2.80;99.90;;;;;;5156966;27;20058;-74
2022/03/11 06:43:20;;;;;;;30.67;25.65;;;2.80;99.90;;;;;;5157533;27;20502;-73
2022/03/11 06:45:46;;;;;;;31.67;26.10;;;2.80;99.90;;;;;;5156974;27;20548;-73
2022/03/11 06:48:12;;;;;;;29.52;25.67;;;2.80;99.90;;;;;;5157429;27;20038;-73
2022/03/11 06:50:37;;;;;;;28.85;25.10;;;2.90;99.90;;;;;;5157115;27;20061;-74
2022/03/11 06:53:03;;;;;;;30.40;25.40;;;2.90;99.90;;;;;;5157084;27;20039;-73
2022/03/11 06:55:29;;;;;;;30.73;25.55;;;2.90;99.90;;;;;;5156959;27;20051;-74
2022/03/11 06:57:55;;;;;;;29.02;24.98;;;3.00;99.90;;;;;;5156376;27;20510;-74
2022/03/11 07:00:20;;;;;;;30.75;25.98;;;3.10;99.90;;;;;;5138946;27;20047;-73
2022/03/11 07:02:46;;;;;;;30.45;25.85;;;3.10;99.90;;;;;;5156383;27;20436;-74
2022/03/11 07:05:12;;;;;;;28.27;24.30;;;3.20;99.90;;;;;;5157095;27;20038;-74
2022/03/11 07:07:38;;;;;;;29.27;24.30;;;3.40;99.90;;;;;;5156850;27;20042;-73
2022/03/11 07:10:07;;;;;;;29.05;24.92;;;3.60;99.90;;;;;;5156607;27;20070;-74
2022/03/11 07:12:32;;;;;;;28.35;23.98;;;3.80;99.90;;;;;;5156859;27;20043;-74
2022/03/11 07:15:00;;;;;;;27.00;24.10;;;4.00;99.90;;;;;;5155546;27;20046;-73
2022/03/11 07:17:27;;;;;;;29.23;23.73;;;4.10;99.90;;;;;;5156870;27;20414;-73
2022/03/11 07:19:52;;;;;;;28.27;23.42;;;4.30;99.90;;;;;;5155897;27;20479;-74
2022/03/11 07:22:18;;;;;;;27.70;24.17;;;4.70;99.90;;;;;;5156737;27;20039;-74
2022/03/11 07:24:45;;;;;;;27.35;23.67;;;5.10;98.60;;;;;;5155881;27;20043;-74
2022/03/11 07:27:11;;;;;;;27.63;22.80;;;5.50;96.90;;;;;;5156523;27;20043;-73
2022/03/11 07:29:37;;;;;;;25.80;22.10;;;6.20;95.30;;;;;;5156446;27;20038;-74
2022/03/11 07:32:04;;;;;;;26.40;22.98;;;6.90;92.50;;;;;;5155974;27;20049;-74
2022/03/11 07:34:30;;;;;;;26.27;21.98;;;7.20;90.40;;;;;;5156716;27;20038;-74
2022/03/11 07:36:56;;;;;;;26.60;22.58;;;7.70;84.30;;;;;;5155276;27;20402;-74
2022/03/11 07:39:21;;;;;;;25.95;21.65;;;7.60;83.50;;;;;;5156293;27;20046;-74
2022/03/11 07:41:50;;;;;;;26.83;22.73;;;7.60;83.20;;;;;;5155716;27;20139;-74
2022/03/11 07:44:17;;;;;;;27.60;23.20;;;7.70;81.70;;;;;;5138419;27;20042;-74
2022/03/11 07:46:44;;;;;;;24.98;22.27;;;7.40;82.00;;;;;;5155848;27;20034;-74
2022/03/11 07:49:10;;;;;;;25.48;22.70;;;7.30;82.20;;;;;;5156135;27;20050;-74
2022/03/11 07:51:37;;;;;;;25.88;22.23;;;7.00;82.20;;;;;;5156195;27;20043;-73
2022/03/11 07:54:02;;;;;;;24.58;21.85;;;6.80;84.50;;;;;;5155513;27;20125;-73
2022/03/11 07:56:28;;;;;;;27.02;23.02;;;6.60;85.10;;;;;;5155780;27;20138;-74
2022/03/11 07:58:56;;;;;;;26.70;23.30;;;6.30;86.50;;;;;;5155370;27;20046;-74
2022/03/11 08:01:22;;;;;;;26.42;22.85;;;6.10;87.50;;;;;;5155912;27;20043;-74
2022/03/11 08:03:48;;;;;;;26.15;22.52;;;6.20;89.70;;;;;;5155282;27;20042;-74
2022/03/11 08:06:14;;;;;;;28.38;23.33;;;6.60;89.30;;;;;;5156201;27;20096;-78
2022/03/11 08:08:40;;;;;;;24.60;21.70;;;6.80;88.50;;;;;;5155921;27;20064;-74
2022/03/11 08:11:06;;;;;;;25.63;22.13;;;6.80;87.30;;;;;;5155216;27;20275;-74
2022/03/11 08:13:34;;;;;;;25.50;22.05;;;7.10;85.10;;;;;;5155243;27;20498;-73
2022/03/11 08:16:00;;;;;;;25.90;22.58;;;7.40;83.90;;;;;;5154174;27;20050;-74
2022/03/11 08:18:26;;;;;;;26.83;23.92;;;7.50;82.00;;;;;;5136486;27;20114;-74
2022/03/11 08:20:51;;;;;;;25.65;22.13;;;7.50;81.60;;;;;;5154668;27;20038;-74
2022/03/11 08:23:17;;;;;;;24.52;21.92;;;7.50;80.40;;;;;;5155006;27;20054;-74
2022/03/11 08:25:43;;;;;;;26.15;23.33;;;7.40;79.40;;;;;;5154561;27;20042;-73
2022/03/11 08:28:13;;;;;;;25.33;21.88;;;7.30;81.00;;;;;;5154408;27;20050;-74
2022/03/11 08:30:40;;;;;;;25.00;22.30;;;7.30;80.00;;;;;;5136934;27;20035;-74
2022/03/11 08:33:07;;;;;;;26.20;23.27;;;7.30;80.00;;;;;;5154787;27;20061;-73
2022/03/11 08:35:33;;;;;;;26.23;23.17;;;7.20;79.20;;;;;;5136490;27;20498;-74
2022/03/11 08:37:59;;;;;;;25.33;22.55;;;7.10;79.90;;;;;;5154706;27;20049;-73
2022/03/11 08:40:26;;;;;;;27.27;23.15;;;7.10;79.30;;;;;;5146340;27;20176;-73
2022/03/11 08:42:53;;;;;;;25.27;22.58;;;7.10;79.80;;;;;;5148553;27;20111;-74
2022/03/11 08:45:22;;;;;;;26.55;22.92;;;7.20;79.60;;;;;;5133283;27;20127;-74
2022/03/11 08:47:52;;;;;;;26.38;22.85;;;7.30;80.20;;;;;;5152315;27;20038;-74
2022/03/11 08:50:18;;;;;;;24.58;21.85;;;7.60;79.10;;;;;;5151101;27;20070;-74
2022/03/11 08:52:44;;;;;;;27.00;22.38;;;7.70;77.30;;;;;;5151719;27;20508;-73
2022/03/11 08:55:11;;;;;;;26.15;22.23;;;7.90;76.90;;;;;;5150894;27;20042;-74
2022/03/11 08:57:37;;;;;;;25.65;21.85;;;8.10;76.40;;;;;;5150070;27;20038;-74
2022/03/11 09:00:14;;;;;;;24.92;21.83;;;8.30;73.30;;;;;;5151265;27;20045;-74
2022/03/11 09:02:40;;;;;;;24.90;21.60;;;8.70;72.40;;;;;;5151864;27;20047;-74
2022/03/11 09:05:07;;;;;;;25.33;21.70;;;9.00;70.50;;;;;;5150782;27;20047;-74
2022/03/11 09:07:33;;;;;;;25.17;21.17;;;9.40;69.50;;;;;;5152349;27;20085;-74
2022/03/11 09:10:05;;;;;;;26.98;21.88;;;9.70;67.60;;;;;;5151759;27;20035;-75
2022/03/11 09:12:31;;;;;;;23.88;21.25;;;9.90;65.90;;;;;;5151864;27;20053;-74
2022/03/11 09:14:57;;;;;;;28.90;22.48;;;9.90;65.20;;;;;;5151494;27;20050;-75
2022/03/11 09:17:22;;;;;;;24.67;21.67;;;9.90;63.60;;;;;;5150757;27;20050;-75
2022/03/11 09:19:49;;;;;;;24.42;21.80;;;10.00;63.60;;;;;;5150683;27;20479;-75
2022/03/11 09:22:17;;;;;;;24.10;21.50;;;10.10;62.90;;;;;;5150870;27;20648;-75
2022/03/11 09:24:46;;;;;;;26.30;22.30;;;10.20;62.80;;;;;;5150839;27;20463;-74
2022/03/11 09:27:12;;;;;;;24.63;21.25;;;10.20;62.50;;;;;;5150993;27;20031;-74
2022/03/11 09:29:39;;;;;;;23.85;20.70;;;10.30;62.20;;;;;;5151125;27;20031;-75
2022/03/11 09:32:06;;;;;;;23.95;21.45;;;10.40;60.60;;;;;;5124030;27;20043;-75
2022/03/11 09:34:33;;;;;;;23.30;20.65;;;10.60;60.70;;;;;;5150972;27;20057;-75
2022/03/11 09:36:59;;;;;;;23.60;21.10;;;10.60;60.40;;;;;;5146008;27;20031;-75
2022/03/11 09:39:25;;;;;;;23.45;20.95;;;10.60;59.90;;;;;;5150507;27;20498;-75
2022/03/11 09:41:51;;;;;;;26.35;20.92;;;10.60;59.20;;;;;;5151248;27;20055;-75
2022/03/11 09:44:18;;;;;;;23.85;21.33;;;10.60;59.40;;;;;;5151351;27;20042;-74
2022/03/11 09:46:45;;;;;;;23.58;20.23;;;10.60;59.90;;;;;;5151764;27;20043;-75
2022/03/11 09:49:16;;;;;;;22.95;20.48;;;10.80;58.80;;;;;;5131735;27;20053;-74
2022/03/11 09:51:42;;;;;;;22.77;20.48;;;10.90;58.90;;;;;;5151686;27;20138;-74
2022/03/11 09:54:10;;;;;;;24.90;21.50;;;11.00;58.70;;;;;;5151048;27;20043;-75
2022/03/11 09:56:38;;;;;;;23.38;19.85;;;11.10;58.50;;;;;;5150505;27;20441;-75
2022/03/11 09:59:05;;;;;;;22.73;19.80;;;11.20;58.20;;;;;;5150759;27;20072;-75
2022/03/11 10:01:30;;;;;;;22.52;18.33;;;11.30;54.20;;;;;;5150982;27;20476;-75
2022/03/11 10:03:56;;;;;;;21.80;19.00;;;11.50;52.70;;;;;;5132115;27;20046;-74
2022/03/11 10:06:42;;;;;;;20.27;17.92;;;11.70;52.00;;;;;;5150244;27;20046;-75
2022/03/11 10:09:30;;;;;;;22.02;18.45;;;11.50;51.50;;;;;;5150367;27;20074;-75
2022/03/11 10:11:56;;;;;;;20.35;17.60;;;11.40;51.40;;;;;;5150655;27;20038;-74
2022/03/11 10:14:30;;;;;;;22.70;19.30;;;11.40;51.70;;;;;;5150734;27;20049;-73
2022/03/11 10:16:56;;;;;;;20.73;18.55;;;11.20;51.30;;;;;;5149908;27;20049;-75
2022/03/11 10:19:22;;;;;;;23.38;19.83;;;11.10;52.00;;;;;;5150063;27;20121;-74
2022/03/11 10:21:50;;;;;;;22.45;18.90;;;11.10;52.60;;;;;;5152366;27;20046;-74
2022/03/11 10:24:20;;;;;;;21.33;19.02;;;11.30;53.30;;;;;;5153736;27;20107;-74
2022/03/11 10:26:51;;;;;;;21.02;18.80;;;11.40;53.40;;;;;;5154448;27;20078;-73
2022/03/11 10:29:23;;;;;;;21.05;18.63;;;11.50;52.00;;;;;;5153698;27;20039;-73
2022/03/11 10:31:53;;;;;;;21.42;18.77;;;11.40;51.30;;;;;;5153041;27;20046;-74
2022/03/11 10:34:26;;;;;;;21.55;19.27;;;11.30;51.30;;;;;;5153373;27;20062;-74
2022/03/11 10:37:06;;;;;;;21.52;19.23;;;11.00;52.00;;;;;;5154066;27;20042;-73
2022/03/11 10:39:38;;;;;;;21.17;18.73;;;11.00;51.80;;;;;;5154024;27;20042;-74
2022/03/11 10:42:19;;;;;;;21.70;19.20;;;11.00;53.30;;;;;;5153326;27;20051;-75
2022/03/11 10:44:54;;;;;;;;;;;11.10;52.60;;;;;;5154603;27;20076;-75
2022/03/11 10:47:37;;;;;;;22.58;18.45;;;11.10;52.40;;;;;;5153343;27;20363;-74
2022/03/11 10:50:16;;;;;;;20.77;18.58;;;11.10;52.50;;;;;;5155874;27;20045;-73
2022/03/11 10:52:47;;;;;;;22.65;18.77;;;11.10;51.90;;;;;;5139209;27;20365;-74
2022/03/11 10:55:27;;;;;;;21.35;18.73;;;11.10;51.70;;;;;;5157195;27;20047;-73
2022/03/11 10:57:58;;;;;;;20.60;18.55;;;11.00;51.60;;;;;;5139058;27;20047;-74
2022/03/11 11:00:29;;;;;;;22.67;18.63;;;10.90;52.30;;;;;;5138440;27;20049;-73
2022/03/11 11:02:57;;;;;;;21.90;18.75;;;10.90;52.30;;;;;;5157553;27;20126;-74
2022/03/11 11:05:24;;;;;;;21.60;18.42;;;10.80;52.90;;;;;;5156982;27;20047;-74
2022/03/11 11:07:50;;;;;;;20.10;17.90;;;10.90;52.40;;;;;;5157362;27;20045;-73
2022/03/11 11:10:17;;;;;;;21.38;18.10;;;10.80;52.60;;;;;;5156944;27;20043;-74
2022/03/11 11:12:44;;;;;;;21.17;18.88;;;10.80;53.10;;;;;;5156965;27;20042;-73
2022/03/11 11:15:11;;;;;;;21.60;19.08;;;10.80;52.20;;;;;;5156772;27;20042;-74
2022/03/11 11:17:38;;;;;;;20.77;17.98;;;10.80;53.30;;;;;;5157159;27;20050;-74
2022/03/11 11:20:26;;;;;;;20.45;18.25;;;10.80;53.60;;;;;;5157033;27;20034;-73
2022/03/11 11:22:53;;;;;;;22.30;19.05;;;10.90;52.20;;;;;;5138204;27;20098;-73
2022/03/11 11:25:22;;;;;;;21.50;18.35;;;10.90;52.90;;;;;;5156712;27;20507;-74
2022/03/11 11:27:49;;;;;;;23.38;18.85;;;10.90;53.00;;;;;;5156473;27;20050;-73
2022/03/11 11:30:21;;;;;;;20.45;17.58;;;11.00;52.60;;;;;;5156486;27;20039;-73
2022/03/11 11:32:49;;;;;;;21.83;17.95;;;11.00;50.90;;;;;;5156840;27;20133;-74
2022/03/11 11:35:34;;;;;;;20.30;18.15;;;11.00;51.30;;;;;;5156413;27;20138;-74
2022/03/11 11:38:03;;;;;;;20.45;18.35;;;11.10;51.40;;;;;;5156777;27;20044;-73
2022/03/11 11:40:32;;;;;;;20.30;17.38;;;11.10;51.50;;;;;;5156171;27;20039;-73
2022/03/11 11:43:45;;;;;;;19.92;17.83;;;11.20;51.00;;;;;;5156622;27;20125;-73
2022/03/11 11:46:12;;;;;;;19.83;17.73;;;11.30;50.60;;;;;;5152742;27;20516;-74
2022/03/11 11:51:08;;;;;;;20.08;17.88;;;11.40;51.60;;;;;;5156557;27;20411;-72
2022/03/11 11:53:57;;;;;;;19.65;17.55;;;11.30;50.60;;;;;;5156335;27;20054;-74
2022/03/11 11:56:26;;;;;;;19.80;17.45;;;11.30;50.00;;;;;;5154858;27;20159;-73
2022/03/11 11:58:52;;;;;;;20.25;18.05;;;11.30;49.80;;;;;;5156334;27;20042;-74
2022/03/11 12:01:36;;;;;;;18.60;16.65;;;11.20;50.10;;;;;;5155585;27;20078;-73
2022/03/11 12:04:36;;;;;;;19.33;17.33;;;11.30;50.00;;;;;;5156268;27;20047;-73
2022/03/11 12:07:17;;;;;;;19.67;17.33;;;11.30;49.60;;;;;;5156182;27;20134;-73
2022/03/11 12:09:47;;;;;;;19.00;17.00;;;11.40;50.10;;;;;;5156148;27;20086;-74
2022/03/11 12:12:23;;;;;;;18.73;16.55;;;11.50;50.30;;;;;;5155696;27;20038;-74
2022/03/11 12:15:01;;;;;;;18.85;16.85;;;11.60;50.20;;;;;;5156204;27;20110;-73
2022/03/11 12:17:39;;;;;;;19.20;17.20;;;11.70;48.80;;;;;;5155552;27;20042;-74
2022/03/11 12:20:23;;;;;;;18.73;16.52;;;11.80;49.70;;;;;;5155884;27;20118;-73
2022/03/11 12:23:14;;;;;;;19.35;17.27;;;11.90;48.70;;;;;;5155296;27;20105;-73
2022/03/11 12:25:44;;;;;;;20.25;16.27;;;11.90;49.40;;;;;;5155908;27;20449;-74
2022/03/11 12:28:12;;;;;;;19.08;16.65;;;11.90;48.60;;;;;;5155560;27;20568;-74
2022/03/11 12:31:01;;;;;;;18.33;16.40;;;11.90;48.50;;;;;;5155378;27;20091;-74
2022/03/11 12:33:36;;;;;;;20.58;17.15;;;11.90;48.70;;;;;;5154716;27;20039;-74
2022/03/11 12:36:05;;;;;;;16.98;15.23;;;12.00;47.80;;;;;;5155636;27;20046;-74
2022/03/11 12:38:33;;;;;;;18.08;16.15;;;12.00;48.80;;;;;;5155138;27;20047;-74
2022/03/11 12:41:14;;;;;;;17.80;15.55;;;12.00;48.50;;;;;;5155566;27;20043;-73